Oconee, Georgia
Current Conditions -  °F | °C
As of 1:55 AM on Monday 22 Dec 2014 (Local Time) from KOKZ Reporting Station
Light Rain Light Rain  
Wind Chill: 44°   Ceiling: 400
Heat Index: 47°   Visibility: 2mi
Dew Point: 47°   Wind: 5mph
Humidity: 100%   Direction: 90°E
Pressure: 30.08"   Gusts: NA
Location:  32.86°N, 82.95°W
Report Text: KOKZ 220655Z AUTO 09004KT 2SM -RA OVC004 08/08 A3008 RMK AO2 T00810081
Loading
Personal Weather Stations






























Interactive Weather Map New forecast layout! Learn more

10-Day Weather Forecast

Advertisements
Track Severe Weather on mobile